sensor_id;sensor_type;location;lat;lon;timestamp;P1;durP1;ratioP1;P2;durP2;ratioP2
16330;SDS011;8275;48.206;16.340;2023-07-24T00:00:05;4.40;;;4.03;;
16330;SDS011;8275;48.206;16.340;2023-07-24T00:02:35;8.00;;;6.05;;
16330;SDS011;8275;48.206;16.340;2023-07-24T00:05:04;6.43;;;5.22;;
16330;SDS011;8275;48.206;16.340;2023-07-24T00:07:33;5.07;;;4.57;;
16330;SDS011;8275;48.206;16.340;2023-07-24T00:10:03;4.50;;;4.10;;
16330;SDS011;8275;48.206;16.340;2023-07-24T00:12:33;6.25;;;5.68;;
16330;SDS011;8275;48.206;16.340;2023-07-24T00:15:02;5.80;;;5.18;;
16330;SDS011;8275;48.206;16.340;2023-07-24T00:17:31;4.63;;;4.22;;
16330;SDS011;8275;48.206;16.340;2023-07-24T00:20:00;4.95;;;4.53;;
16330;SDS011;8275;48.206;16.340;2023-07-24T00:22:29;5.10;;;4.55;;
16330;SDS011;8275;48.206;16.340;2023-07-24T00:24:57;7.07;;;4.90;;
16330;SDS011;8275;48.206;16.340;2023-07-24T00:27:27;5.32;;;4.80;;
16330;SDS011;8275;48.206;16.340;2023-07-24T00:29:55;5.25;;;4.75;;
16330;SDS011;8275;48.206;16.340;2023-07-24T00:32:24;6.22;;;4.40;;
16330;SDS011;8275;48.206;16.340;2023-07-24T00:34:52;5.00;;;4.53;;
16330;SDS011;8275;48.206;16.340;2023-07-24T00:37:21;5.55;;;5.05;;
16330;SDS011;8275;48.206;16.340;2023-07-24T00:39:49;4.78;;;4.38;;
16330;SDS011;8275;48.206;16.340;2023-07-24T00:42:18;6.43;;;5.28;;
16330;SDS011;8275;48.206;16.340;2023-07-24T00:44:48;20.35;;;5.95;;
16330;SDS011;8275;48.206;16.340;2023-07-24T00:47:16;8.30;;;4.70;;
16330;SDS011;8275;48.206;16.340;2023-07-24T00:49:46;4.88;;;4.40;;
16330;SDS011;8275;48.206;16.340;2023-07-24T00:52:15;5.72;;;4.82;;
16330;SDS011;8275;48.206;16.340;2023-07-24T00:54:44;5.35;;;4.85;;
16330;SDS011;8275;48.206;16.340;2023-07-24T00:57:14;6.03;;;4.45;;
16330;SDS011;8275;48.206;16.340;2023-07-24T00:59:42;5.53;;;5.03;;
16330;SDS011;8275;48.206;16.340;2023-07-24T01:02:14;4.95;;;4.45;;
16330;SDS011;8275;48.206;16.340;2023-07-24T01:04:42;7.18;;;4.82;;
16330;SDS011;8275;48.206;16.340;2023-07-24T01:07:11;6.03;;;5.05;;
16330;SDS011;8275;48.206;16.340;2023-07-24T01:09:40;6.38;;;5.10;;
16330;SDS011;8275;48.206;16.340;2023-07-24T01:12:10;14.60;;;5.00;;
16330;SDS011;8275;48.206;16.340;2023-07-24T01:14:49;4.95;;;4.55;;
16330;SDS011;8275;48.206;16.340;2023-07-24T01:17:27;4.30;;;4.00;;
16330;SDS011;8275;48.206;16.340;2023-07-24T01:19:58;5.00;;;4.55;;
16330;SDS011;8275;48.206;16.340;2023-07-24T01:22:32;4.65;;;4.20;;
16330;SDS011;8275;48.206;16.340;2023-07-24T01:25:10;5.07;;;4.50;;
16330;SDS011;8275;48.206;16.340;2023-07-24T01:27:47;6.20;;;4.88;;
16330;SDS011;8275;48.206;16.340;2023-07-24T01:30:16;5.53;;;4.78;;
16330;SDS011;8275;48.206;16.340;2023-07-24T01:32:46;5.82;;;5.28;;
16330;SDS011;8275;48.206;16.340;2023-07-24T01:35:15;7.47;;;4.78;;
16330;SDS011;8275;48.206;16.340;2023-07-24T01:37:44;5.30;;;4.80;;
16330;SDS011;8275;48.206;16.340;2023-07-24T01:40:15;5.03;;;4.53;;
16330;SDS011;8275;48.206;16.340;2023-07-24T01:42:44;5.57;;;5.07;;
16330;SDS011;8275;48.206;16.340;2023-07-24T01:45:14;5.45;;;4.90;;
16330;SDS011;8275;48.206;16.340;2023-07-24T01:47:42;9.45;;;5.13;;
16330;SDS011;8275;48.206;16.340;2023-07-24T01:50:11;5.72;;;5.05;;
16330;SDS011;8275;48.206;16.340;2023-07-24T01:52:39;5.88;;;5.38;;
16330;SDS011;8275;48.206;16.340;2023-07-24T01:55:08;5.38;;;4.82;;
16330;SDS011;8275;48.206;16.340;2023-07-24T01:57:36;6.60;;;4.55;;
16330;SDS011;8275;48.206;16.340;2023-07-24T02:00:06;5.28;;;4.75;;
16330;SDS011;8275;48.206;16.340;2023-07-24T02:02:37;5.00;;;4.47;;
16330;SDS011;8275;48.206;16.340;2023-07-24T02:05:06;4.93;;;4.53;;
16330;SDS011;8275;48.206;16.340;2023-07-24T02:07:36;5.20;;;4.63;;
16330;SDS011;8275;48.206;16.340;2023-07-24T02:10:05;5.25;;;4.78;;
16330;SDS011;8275;48.206;16.340;2023-07-24T02:12:34;5.57;;;4.95;;
16330;SDS011;8275;48.206;16.340;2023-07-24T02:15:03;6.45;;;5.13;;
16330;SDS011;8275;48.206;16.340;2023-07-24T02:17:33;5.47;;;4.95;;
16330;SDS011;8275;48.206;16.340;2023-07-24T02:20:04;4.15;;;3.70;;
16330;SDS011;8275;48.206;16.340;2023-07-24T02:22:34;6.65;;;5.22;;
16330;SDS011;8275;48.206;16.340;2023-07-24T02:25:03;4.88;;;3.88;;
16330;SDS011;8275;48.206;16.340;2023-07-24T02:27:32;5.60;;;5.10;;
16330;SDS011;8275;48.206;16.340;2023-07-24T02:30:01;5.30;;;4.80;;
16330;SDS011;8275;48.206;16.340;2023-07-24T02:32:31;6.90;;;4.97;;
16330;SDS011;8275;48.206;16.340;2023-07-24T02:34:59;5.65;;;5.15;;
16330;SDS011;8275;48.206;16.340;2023-07-24T02:37:29;6.28;;;5.28;;
16330;SDS011;8275;48.206;16.340;2023-07-24T02:39:58;6.35;;;5.47;;
16330;SDS011;8275;48.206;16.340;2023-07-24T02:42:26;7.68;;;5.40;;
16330;SDS011;8275;48.206;16.340;2023-07-24T02:44:54;5.22;;;4.72;;
16330;SDS011;8275;48.206;16.340;2023-07-24T02:47:23;6.00;;;3.97;;
16330;SDS011;8275;48.206;16.340;2023-07-24T02:49:52;5.93;;;5.32;;
16330;SDS011;8275;48.206;16.340;2023-07-24T02:52:20;5.25;;;4.75;;
16330;SDS011;8275;48.206;16.340;2023-07-24T02:54:51;6.07;;;5.00;;
16330;SDS011;8275;48.206;16.340;2023-07-24T02:57:20;6.70;;;4.85;;
16330;SDS011;8275;48.206;16.340;2023-07-24T02:59:49;5.13;;;4.63;;
16330;SDS011;8275;48.206;16.340;2023-07-24T03:02:17;6.38;;;4.50;;
16330;SDS011;8275;48.206;16.340;2023-07-24T03:04:46;5.80;;;5.18;;
16330;SDS011;8275;48.206;16.340;2023-07-24T03:07:14;7.45;;;5.63;;
16330;SDS011;8275;48.206;16.340;2023-07-24T03:09:43;6.18;;;5.57;;
16330;SDS011;8275;48.206;16.340;2023-07-24T03:12:13;7.88;;;5.32;;
16330;SDS011;8275;48.206;16.340;2023-07-24T03:14:41;6.82;;;5.10;;
16330;SDS011;8275;48.206;16.340;2023-07-24T03:17:10;5.72;;;5.15;;
16330;SDS011;8275;48.206;16.340;2023-07-24T03:19:39;7.45;;;5.25;;
16330;SDS011;8275;48.206;16.340;2023-07-24T03:22:08;6.13;;;5.53;;
16330;SDS011;8275;48.206;16.340;2023-07-24T03:24:36;5.50;;;5.00;;
16330;SDS011;8275;48.206;16.340;2023-07-24T03:27:05;6.07;;;5.38;;
16330;SDS011;8275;48.206;16.340;2023-07-24T03:29:35;6.40;;;4.95;;
16330;SDS011;8275;48.206;16.340;2023-07-24T03:32:04;6.10;;;5.55;;
16330;SDS011;8275;48.206;16.340;2023-07-24T03:34:33;5.65;;;4.97;;
16330;SDS011;8275;48.206;16.340;2023-07-24T03:37:02;8.68;;;6.10;;
16330;SDS011;8275;48.206;16.340;2023-07-24T03:39:31;7.28;;;5.43;;
16330;SDS011;8275;48.206;16.340;2023-07-24T03:41:59;6.22;;;5.63;;
16330;SDS011;8275;48.206;16.340;2023-07-24T03:44:29;6.18;;;5.57;;
16330;SDS011;8275;48.206;16.340;2023-07-24T03:46:59;6.68;;;5.80;;
16330;SDS011;8275;48.206;16.340;2023-07-24T03:49:27;6.43;;;5.82;;
16330;SDS011;8275;48.206;16.340;2023-07-24T03:51:56;6.55;;;5.45;;
16330;SDS011;8275;48.206;16.340;2023-07-24T03:54:24;7.00;;;6.30;;
16330;SDS011;8275;48.206;16.340;2023-07-24T03:56:53;7.25;;;5.90;;
16330;SDS011;8275;48.206;16.340;2023-07-24T03:59:21;9.80;;;5.85;;
16330;SDS011;8275;48.206;16.340;2023-07-24T04:01:50;8.27;;;6.25;;
16330;SDS011;8275;48.206;16.340;2023-07-24T04:04:19;6.75;;;5.78;;
16330;SDS011;8275;48.206;16.340;2023-07-24T04:06:48;8.32;;;6.32;;
16330;SDS011;8275;48.206;16.340;2023-07-24T04:09:17;6.03;;;5.47;;
16330;SDS011;8275;48.206;16.340;2023-07-24T04:11:45;8.15;;;6.32;;
16330;SDS011;8275;48.206;16.340;2023-07-24T04:14:14;5.60;;;5.20;;
16330;SDS011;8275;48.206;16.340;2023-07-24T04:16:42;6.68;;;5.80;;
16330;SDS011;8275;48.206;16.340;2023-07-24T04:19:11;8.82;;;5.63;;
16330;SDS011;8275;48.206;16.340;2023-07-24T04:21:41;6.72;;;6.13;;
16330;SDS011;8275;48.206;16.340;2023-07-24T04:24:10;5.78;;;5.28;;
16330;SDS011;8275;48.206;16.340;2023-07-24T04:26:38;8.57;;;7.72;;
16330;SDS011;8275;48.206;16.340;2023-07-24T04:29:07;13.05;;;7.10;;
16330;SDS011;8275;48.206;16.340;2023-07-24T04:31:35;6.38;;;5.78;;
16330;SDS011;8275;48.206;16.340;2023-07-24T04:34:04;7.93;;;6.63;;
16330;SDS011;8275;48.206;16.340;2023-07-24T04:36:32;9.55;;;6.05;;
16330;SDS011;8275;48.206;16.340;2023-07-24T04:39:02;9.07;;;5.63;;
16330;SDS011;8275;48.206;16.340;2023-07-24T04:41:31;8.32;;;6.88;;
16330;SDS011;8275;48.206;16.340;2023-07-24T04:43:59;6.75;;;6.07;;
16330;SDS011;8275;48.206;16.340;2023-07-24T04:46:28;7.30;;;6.72;;
16330;SDS011;8275;48.206;16.340;2023-07-24T04:48:57;7.10;;;6.07;;
16330;SDS011;8275;48.206;16.340;2023-07-24T04:51:25;8.15;;;6.80;;
16330;SDS011;8275;48.206;16.340;2023-07-24T04:53:54;7.40;;;6.70;;
16330;SDS011;8275;48.206;16.340;2023-07-24T04:56:24;8.52;;;6.70;;
16330;SDS011;8275;48.206;16.340;2023-07-24T04:58:53;8.07;;;7.10;;
16330;SDS011;8275;48.206;16.340;2023-07-24T05:01:21;9.45;;;7.00;;
16330;SDS011;8275;48.206;16.340;2023-07-24T05:03:50;7.10;;;6.50;;
16330;SDS011;8275;48.206;16.340;2023-07-24T05:06:18;7.28;;;6.57;;
16330;SDS011;8275;48.206;16.340;2023-07-24T05:08:47;8.77;;;6.45;;
16330;SDS011;8275;48.206;16.340;2023-07-24T05:11:15;8.27;;;6.93;;
16330;SDS011;8275;48.206;16.340;2023-07-24T05:13:45;9.23;;;8.32;;
16330;SDS011;8275;48.206;16.340;2023-07-24T05:16:14;10.85;;;6.80;;
16330;SDS011;8275;48.206;16.340;2023-07-24T05:18:42;10.52;;;7.35;;
16330;SDS011;8275;48.206;16.340;2023-07-24T05:21:11;11.30;;;7.72;;
16330;SDS011;8275;48.206;16.340;2023-07-24T05:23:39;10.18;;;7.70;;
16330;SDS011;8275;48.206;16.340;2023-07-24T05:26:08;8.75;;;7.75;;
16330;SDS011;8275;48.206;16.340;2023-07-24T05:28:36;13.13;;;7.57;;
16330;SDS011;8275;48.206;16.340;2023-07-24T05:31:06;7.05;;;6.38;;
16330;SDS011;8275;48.206;16.340;2023-07-24T05:33:35;8.18;;;7.22;;
16330;SDS011;8275;48.206;16.340;2023-07-24T05:36:04;8.35;;;7.55;;
16330;SDS011;8275;48.206;16.340;2023-07-24T05:38:32;8.10;;;7.13;;
16330;SDS011;8275;48.206;16.340;2023-07-24T05:41:01;8.50;;;6.60;;
16330;SDS011;8275;48.206;16.340;2023-07-24T05:43:31;8.60;;;6.47;;
16330;SDS011;8275;48.206;16.340;2023-07-24T05:46:00;7.97;;;7.05;;
16330;SDS011;8275;48.206;16.340;2023-07-24T05:48:30;8.35;;;6.72;;
16330;SDS011;8275;48.206;16.340;2023-07-24T05:50:59;8.55;;;7.68;;
16330;SDS011;8275;48.206;16.340;2023-07-24T05:53:27;8.13;;;7.15;;
16330;SDS011;8275;48.206;16.340;2023-07-24T05:55:59;8.82;;;6.90;;
16330;SDS011;8275;48.206;16.340;2023-07-24T05:58:29;9.55;;;7.43;;
16330;SDS011;8275;48.206;16.340;2023-07-24T06:00:58;7.82;;;7.13;;
16330;SDS011;8275;48.206;16.340;2023-07-24T06:03:27;8.05;;;6.63;;
16330;SDS011;8275;48.206;16.340;2023-07-24T06:05:57;10.05;;;7.55;;
16330;SDS011;8275;48.206;16.340;2023-07-24T06:08:26;15.77;;;7.97;;
16330;SDS011;8275;48.206;16.340;2023-07-24T06:10:54;10.35;;;7.03;;
16330;SDS011;8275;48.206;16.340;2023-07-24T06:13:23;10.25;;;8.15;;
16330;SDS011;8275;48.206;16.340;2023-07-24T06:15:51;11.50;;;6.57;;
16330;SDS011;8275;48.206;16.340;2023-07-24T06:18:20;6.88;;;6.18;;
16330;SDS011;8275;48.206;16.340;2023-07-24T06:20:53;9.48;;;6.72;;
16330;SDS011;8275;48.206;16.340;2023-07-24T06:23:21;8.60;;;6.82;;
16330;SDS011;8275;48.206;16.340;2023-07-24T06:25:50;8.27;;;7.47;;
16330;SDS011;8275;48.206;16.340;2023-07-24T06:28:19;7.90;;;7.18;;
16330;SDS011;8275;48.206;16.340;2023-07-24T06:30:48;8.15;;;7.00;;
16330;SDS011;8275;48.206;16.340;2023-07-24T06:33:19;9.32;;;7.22;;
16330;SDS011;8275;48.206;16.340;2023-07-24T06:35:48;10.20;;;7.43;;
16330;SDS011;8275;48.206;16.340;2023-07-24T06:38:19;8.05;;;6.82;;
16330;SDS011;8275;48.206;16.340;2023-07-24T06:40:48;8.93;;;7.60;;
16330;SDS011;8275;48.206;16.340;2023-07-24T06:43:17;10.15;;;7.20;;
16330;SDS011;8275;48.206;16.340;2023-07-24T06:45:46;8.00;;;7.15;;
16330;SDS011;8275;48.206;16.340;2023-07-24T06:48:14;7.75;;;7.00;;
16330;SDS011;8275;48.206;16.340;2023-07-24T06:50:43;6.72;;;6.03;;
16330;SDS011;8275;48.206;16.340;2023-07-24T06:53:12;8.60;;;7.22;;
16330;SDS011;8275;48.206;16.340;2023-07-24T06:55:42;8.23;;;6.60;;
16330;SDS011;8275;48.206;16.340;2023-07-24T06:58:10;13.25;;;7.80;;
16330;SDS011;8275;48.206;16.340;2023-07-24T07:00:39;14.02;;;8.23;;
16330;SDS011;8275;48.206;16.340;2023-07-24T07:03:08;8.07;;;7.28;;
16330;SDS011;8275;48.206;16.340;2023-07-24T07:05:36;11.60;;;7.75;;
16330;SDS011;8275;48.206;16.340;2023-07-24T07:08:05;13.20;;;7.40;;
16330;SDS011;8275;48.206;16.340;2023-07-24T07:10:33;10.55;;;8.05;;
16330;SDS011;8275;48.206;16.340;2023-07-24T07:13:03;11.43;;;6.38;;
16330;SDS011;8275;48.206;16.340;2023-07-24T07:15:32;13.55;;;7.90;;
16330;SDS011;8275;48.206;16.340;2023-07-24T07:18:00;14.18;;;7.55;;
16330;SDS011;8275;48.206;16.340;2023-07-24T07:20:29;10.02;;;7.72;;
16330;SDS011;8275;48.206;16.340;2023-07-24T07:22:57;8.57;;;7.78;;
16330;SDS011;8275;48.206;16.340;2023-07-24T07:25:26;9.85;;;6.63;;
16330;SDS011;8275;48.206;16.340;2023-07-24T07:27:55;9.48;;;6.95;;
16330;SDS011;8275;48.206;16.340;2023-07-24T07:30:25;7.60;;;6.88;;
16330;SDS011;8275;48.206;16.340;2023-07-24T07:32:53;10.65;;;7.32;;
16330;SDS011;8275;48.206;16.340;2023-07-24T07:35:22;12.30;;;8.57;;
16330;SDS011;8275;48.206;16.340;2023-07-24T07:37:50;11.55;;;8.13;;
16330;SDS011;8275;48.206;16.340;2023-07-24T07:40:19;7.28;;;6.60;;
16330;SDS011;8275;48.206;16.340;2023-07-24T07:42:49;7.65;;;6.47;;
16330;SDS011;8275;48.206;16.340;2023-07-24T07:45:18;9.52;;;6.22;;
16330;SDS011;8275;48.206;16.340;2023-07-24T07:47:48;7.63;;;6.93;;
16330;SDS011;8275;48.206;16.340;2023-07-24T07:50:19;19.25;;;9.02;;
16330;SDS011;8275;48.206;16.340;2023-07-24T07:52:49;16.48;;;7.90;;
16330;SDS011;8275;48.206;16.340;2023-07-24T07:55:18;15.52;;;8.10;;
16330;SDS011;8275;48.206;16.340;2023-07-24T07:57:47;8.73;;;6.45;;
16330;SDS011;8275;48.206;16.340;2023-07-24T08:00:15;10.68;;;6.18;;
16330;SDS011;8275;48.206;16.340;2023-07-24T08:02:44;9.10;;;6.18;;
16330;SDS011;8275;48.206;16.340;2023-07-24T08:05:14;20.13;;;8.73;;
16330;SDS011;8275;48.206;16.340;2023-07-24T08:07:46;13.27;;;6.90;;
16330;SDS011;8275;48.206;16.340;2023-07-24T08:10:15;12.45;;;8.02;;
16330;SDS011;8275;48.206;16.340;2023-07-24T08:12:44;7.85;;;7.03;;
16330;SDS011;8275;48.206;16.340;2023-07-24T08:15:12;13.35;;;7.07;;
16330;SDS011;8275;48.206;16.340;2023-07-24T08:17:41;6.68;;;5.60;;
16330;SDS011;8275;48.206;16.340;2023-07-24T08:20:10;6.82;;;6.13;;
16330;SDS011;8275;48.206;16.340;2023-07-24T08:22:40;6.45;;;5.65;;
16330;SDS011;8275;48.206;16.340;2023-07-24T08:25:08;8.65;;;6.13;;
16330;SDS011;8275;48.206;16.340;2023-07-24T08:27:37;7.85;;;6.05;;
16330;SDS011;8275;48.206;16.340;2023-07-24T08:30:25;6.88;;;6.28;;
16330;SDS011;8275;48.206;16.340;2023-07-24T08:32:55;8.05;;;6.07;;
16330;SDS011;8275;48.206;16.340;2023-07-24T08:35:24;5.95;;;5.50;;
16330;SDS011;8275;48.206;16.340;2023-07-24T08:37:54;6.80;;;6.20;;
16330;SDS011;8275;48.206;16.340;2023-07-24T08:40:23;7.95;;;7.10;;
16330;SDS011;8275;48.206;16.340;2023-07-24T08:42:51;7.90;;;6.90;;
16330;SDS011;8275;48.206;16.340;2023-07-24T08:45:21;13.65;;;7.30;;
16330;SDS011;8275;48.206;16.340;2023-07-24T08:47:52;9.23;;;6.25;;
16330;SDS011;8275;48.206;16.340;2023-07-24T08:50:21;11.48;;;6.30;;
16330;SDS011;8275;48.206;16.340;2023-07-24T08:52:51;9.40;;;6.78;;
16330;SDS011;8275;48.206;16.340;2023-07-24T08:55:21;9.15;;;7.32;;
16330;SDS011;8275;48.206;16.340;2023-07-24T08:57:50;11.07;;;7.80;;
16330;SDS011;8275;48.206;16.340;2023-07-24T09:00:18;7.97;;;6.43;;
16330;SDS011;8275;48.206;16.340;2023-07-24T09:02:47;8.90;;;7.00;;
16330;SDS011;8275;48.206;16.340;2023-07-24T09:05:16;6.15;;;5.65;;
16330;SDS011;8275;48.206;16.340;2023-07-24T09:07:45;8.05;;;6.57;;
16330;SDS011;8275;48.206;16.340;2023-07-24T09:10:14;8.18;;;7.38;;
16330;SDS011;8275;48.206;16.340;2023-07-24T09:12:44;6.65;;;6.15;;
16330;SDS011;8275;48.206;16.340;2023-07-24T09:15:13;21.70;;;11.48;;
16330;SDS011;8275;48.206;16.340;2023-07-24T09:17:48;7.57;;;6.80;;
16330;SDS011;8275;48.206;16.340;2023-07-24T09:20:19;8.45;;;7.65;;
16330;SDS011;8275;48.206;16.340;2023-07-24T09:22:51;7.85;;;7.15;;
16330;SDS011;8275;48.206;16.340;2023-07-24T09:25:40;7.65;;;6.85;;
16330;SDS011;8275;48.206;16.340;2023-07-24T09:28:12;7.45;;;5.95;;
16330;SDS011;8275;48.206;16.340;2023-07-24T09:30:42;7.22;;;6.53;;
16330;SDS011;8275;48.206;16.340;2023-07-24T09:33:20;8.85;;;6.35;;
16330;SDS011;8275;48.206;16.340;2023-07-24T09:35:59;7.40;;;6.70;;
16330;SDS011;8275;48.206;16.340;2023-07-24T09:38:29;8.65;;;6.85;;
16330;SDS011;8275;48.206;16.340;2023-07-24T09:41:00;9.82;;;7.70;;
16330;SDS011;8275;48.206;16.340;2023-07-24T09:43:31;17.05;;;6.43;;
16330;SDS011;8275;48.206;16.340;2023-07-24T09:46:07;11.50;;;6.85;;
16330;SDS011;8275;48.206;16.340;2023-07-24T09:48:37;9.88;;;6.13;;
16330;SDS011;8275;48.206;16.340;2023-07-24T09:51:26;7.60;;;6.38;;
16330;SDS011;8275;48.206;16.340;2023-07-24T09:54:01;7.55;;;6.07;;
16330;SDS011;8275;48.206;16.340;2023-07-24T09:56:38;7.95;;;7.22;;
16330;SDS011;8275;48.206;16.340;2023-07-24T09:59:22;8.43;;;6.40;;
16330;SDS011;8275;48.206;16.340;2023-07-24T10:01:54;7.15;;;6.55;;
16330;SDS011;8275;48.206;16.340;2023-07-24T10:04:23;7.60;;;6.10;;
16330;SDS011;8275;48.206;16.340;2023-07-24T10:06:52;5.82;;;5.32;;
16330;SDS011;8275;48.206;16.340;2023-07-24T10:09:21;8.20;;;6.97;;
16330;SDS011;8275;48.206;16.340;2023-07-24T10:11:54;6.53;;;5.93;;
16330;SDS011;8275;48.206;16.340;2023-07-24T10:14:25;12.43;;;6.63;;
16330;SDS011;8275;48.206;16.340;2023-07-24T10:16:55;7.50;;;6.85;;
16330;SDS011;8275;48.206;16.340;2023-07-24T10:19:24;6.85;;;6.25;;
16330;SDS011;8275;48.206;16.340;2023-07-24T10:22:04;7.15;;;6.55;;
16330;SDS011;8275;48.206;16.340;2023-07-24T10:24:33;7.60;;;6.85;;
16330;SDS011;8275;48.206;16.340;2023-07-24T10:27:07;6.55;;;5.78;;
16330;SDS011;8275;48.206;16.340;2023-07-24T10:29:37;6.68;;;6.07;;
16330;SDS011;8275;48.206;16.340;2023-07-24T10:32:16;6.95;;;6.35;;
16330;SDS011;8275;48.206;16.340;2023-07-24T10:34:45;7.43;;;6.53;;
16330;SDS011;8275;48.206;16.340;2023-07-24T10:37:32;6.88;;;6.13;;
16330;SDS011;8275;48.206;16.340;2023-07-24T10:40:02;8.02;;;7.13;;
16330;SDS011;8275;48.206;16.340;2023-07-24T10:42:32;8.68;;;7.05;;
16330;SDS011;8275;48.206;16.340;2023-07-24T10:45:04;7.25;;;6.43;;
16330;SDS011;8275;48.206;16.340;2023-07-24T10:47:34;6.45;;;5.88;;
16330;SDS011;8275;48.206;16.340;2023-07-24T10:50:04;6.10;;;5.60;;
16330;SDS011;8275;48.206;16.340;2023-07-24T10:52:34;8.32;;;6.93;;
16330;SDS011;8275;48.206;16.340;2023-07-24T10:55:02;9.05;;;7.00;;
16330;SDS011;8275;48.206;16.340;2023-07-24T10:57:32;6.53;;;5.97;;
16330;SDS011;8275;48.206;16.340;2023-07-24T11:00:01;8.15;;;6.05;;
16330;SDS011;8275;48.206;16.340;2023-07-24T11:02:33;7.15;;;6.07;;
16330;SDS011;8275;48.206;16.340;2023-07-24T11:05:01;8.35;;;7.07;;
16330;SDS011;8275;48.206;16.340;2023-07-24T11:07:33;7.65;;;6.93;;
16330;SDS011;8275;48.206;16.340;2023-07-24T11:10:02;15.98;;;9.43;;
16330;SDS011;8275;48.206;16.340;2023-07-24T11:12:45;8.50;;;6.88;;
16330;SDS011;8275;48.206;16.340;2023-07-24T11:15:16;8.07;;;7.47;;
16330;SDS011;8275;48.206;16.340;2023-07-24T11:17:52;13.00;;;8.55;;
16330;SDS011;8275;48.206;16.340;2023-07-24T11:20:21;9.10;;;8.15;;
16330;SDS011;8275;48.206;16.340;2023-07-24T11:22:50;9.00;;;7.53;;
16330;SDS011;8275;48.206;16.340;2023-07-24T11:25:19;15.45;;;9.43;;
16330;SDS011;8275;48.206;16.340;2023-07-24T11:27:47;9.05;;;8.18;;
16330;SDS011;8275;48.206;16.340;2023-07-24T11:30:20;49.08;;;11.77;;
16330;SDS011;8275;48.206;16.340;2023-07-24T11:32:49;7.80;;;7.10;;
16330;SDS011;8275;48.206;16.340;2023-07-24T11:35:19;8.80;;;7.90;;
16330;SDS011;8275;48.206;16.340;2023-07-24T11:37:49;8.23;;;7.43;;
16330;SDS011;8275;48.206;16.340;2023-07-24T11:40:17;6.82;;;6.32;;
16330;SDS011;8275;48.206;16.340;2023-07-24T11:42:48;7.80;;;7.05;;
16330;SDS011;8275;48.206;16.340;2023-07-24T11:45:16;7.88;;;7.15;;
16330;SDS011;8275;48.206;16.340;2023-07-24T11:47:47;8.90;;;6.07;;
16330;SDS011;8275;48.206;16.340;2023-07-24T11:50:20;7.72;;;7.15;;
16330;SDS011;8275;48.206;16.340;2023-07-24T11:52:50;7.28;;;6.68;;
16330;SDS011;8275;48.206;16.340;2023-07-24T11:55:19;9.48;;;7.55;;
16330;SDS011;8275;48.206;16.340;2023-07-24T11:58:00;8.25;;;7.57;;
16330;SDS011;8275;48.206;16.340;2023-07-24T12:00:35;8.55;;;7.85;;
16330;SDS011;8275;48.206;16.340;2023-07-24T12:03:05;8.30;;;7.53;;
16330;SDS011;8275;48.206;16.340;2023-07-24T12:05:37;6.43;;;5.85;;
16330;SDS011;8275;48.206;16.340;2023-07-24T12:08:07;7.75;;;7.05;;
16330;SDS011;8275;48.206;16.340;2023-07-24T12:10:37;8.50;;;7.00;;
16330;SDS011;8275;48.206;16.340;2023-07-24T12:13:06;8.75;;;6.63;;
16330;SDS011;8275;48.206;16.340;2023-07-24T12:15:35;8.48;;;7.78;;
16330;SDS011;8275;48.206;16.340;2023-07-24T12:18:05;8.50;;;7.45;;
16330;SDS011;8275;48.206;16.340;2023-07-24T12:20:34;8.20;;;7.53;;
16330;SDS011;8275;48.206;16.340;2023-07-24T12:23:03;9.50;;;8.57;;
16330;SDS011;8275;48.206;16.340;2023-07-24T12:25:31;8.82;;;7.80;;
16330;SDS011;8275;48.206;16.340;2023-07-24T12:28:00;11.00;;;8.80;;
16330;SDS011;8275;48.206;16.340;2023-07-24T12:30:29;8.70;;;7.90;;
16330;SDS011;8275;48.206;16.340;2023-07-24T12:32:57;11.20;;;8.77;;
16330;SDS011;8275;48.206;16.340;2023-07-24T12:35:27;9.25;;;8.45;;
16330;SDS011;8275;48.206;16.340;2023-07-24T12:37:56;10.20;;;9.20;;
16330;SDS011;8275;48.206;16.340;2023-07-24T12:40:25;10.15;;;9.13;;
16330;SDS011;8275;48.206;16.340;2023-07-24T12:42:54;10.40;;;9.50;;
16330;SDS011;8275;48.206;16.340;2023-07-24T12:45:22;9.10;;;8.38;;
16330;SDS011;8275;48.206;16.340;2023-07-24T12:47:51;10.70;;;9.63;;
16330;SDS011;8275;48.206;16.340;2023-07-24T12:50:23;10.13;;;9.32;;
16330;SDS011;8275;48.206;16.340;2023-07-24T12:52:52;9.93;;;8.93;;
16330;SDS011;8275;48.206;16.340;2023-07-24T12:55:21;10.48;;;9.48;;
16330;SDS011;8275;48.206;16.340;2023-07-24T12:57:50;10.90;;;9.80;;
16330;SDS011;8275;48.206;16.340;2023-07-24T13:00:18;9.25;;;8.52;;
16330;SDS011;8275;48.206;16.340;2023-07-24T13:02:47;10.05;;;9.15;;
16330;SDS011;8275;48.206;16.340;2023-07-24T13:05:16;10.27;;;9.35;;
16330;SDS011;8275;48.206;16.340;2023-07-24T13:07:45;10.32;;;8.20;;
16330;SDS011;8275;48.206;16.340;2023-07-24T13:10:15;10.07;;;8.90;;
16330;SDS011;8275;48.206;16.340;2023-07-24T13:12:43;9.98;;;8.98;;
16330;SDS011;8275;48.206;16.340;2023-07-24T13:15:12;9.65;;;8.90;;
16330;SDS011;8275;48.206;16.340;2023-07-24T13:17:40;9.50;;;8.60;;
16330;SDS011;8275;48.206;16.340;2023-07-24T13:20:10;9.60;;;8.70;;
16330;SDS011;8275;48.206;16.340;2023-07-24T13:22:39;9.40;;;8.60;;
16330;SDS011;8275;48.206;16.340;2023-07-24T13:25:09;9.40;;;8.63;;
16330;SDS011;8275;48.206;16.340;2023-07-24T13:27:39;10.30;;;9.40;;
16330;SDS011;8275;48.206;16.340;2023-07-24T13:30:08;10.25;;;9.35;;
16330;SDS011;8275;48.206;16.340;2023-07-24T13:32:37;9.50;;;8.70;;
16330;SDS011;8275;48.206;16.340;2023-07-24T13:35:07;10.05;;;9.30;;
16330;SDS011;8275;48.206;16.340;2023-07-24T13:37:36;10.90;;;10.00;;
16330;SDS011;8275;48.206;16.340;2023-07-24T13:40:06;10.00;;;8.98;;
16330;SDS011;8275;48.206;16.340;2023-07-24T13:42:36;9.60;;;8.80;;
16330;SDS011;8275;48.206;16.340;2023-07-24T13:45:07;11.13;;;10.18;;
16330;SDS011;8275;48.206;16.340;2023-07-24T13:47:37;10.52;;;9.65;;
16330;SDS011;8275;48.206;16.340;2023-07-24T13:50:06;10.85;;;9.77;;
16330;SDS011;8275;48.206;16.340;2023-07-24T13:52:35;17.05;;;9.73;;
16330;SDS011;8275;48.206;16.340;2023-07-24T13:55:04;12.77;;;9.90;;
16330;SDS011;8275;48.206;16.340;2023-07-24T13:57:32;11.27;;;9.70;;
16330;SDS011;8275;48.206;16.340;2023-07-24T14:00:00;11.00;;;9.93;;
16330;SDS011;8275;48.206;16.340;2023-07-24T14:02:31;10.63;;;9.63;;
16330;SDS011;8275;48.206;16.340;2023-07-24T14:05:00;10.88;;;9.88;;
16330;SDS011;8275;48.206;16.340;2023-07-24T14:07:29;11.27;;;10.20;;
16330;SDS011;8275;48.206;16.340;2023-07-24T14:09:59;14.68;;;9.68;;
16330;SDS011;8275;48.206;16.340;2023-07-24T14:12:27;11.40;;;9.93;;
16330;SDS011;8275;48.206;16.340;2023-07-24T14:14:56;11.52;;;10.40;;
16330;SDS011;8275;48.206;16.340;2023-07-24T14:17:25;10.77;;;9.70;;
16330;SDS011;8275;48.206;16.340;2023-07-24T14:19:55;9.90;;;9.00;;
16330;SDS011;8275;48.206;16.340;2023-07-24T14:22:24;10.00;;;9.15;;
16330;SDS011;8275;48.206;16.340;2023-07-24T14:24:53;10.88;;;9.85;;
16330;SDS011;8275;48.206;16.340;2023-07-24T14:27:22;11.32;;;9.63;;
16330;SDS011;8275;48.206;16.340;2023-07-24T14:29:51;9.85;;;8.85;;
16330;SDS011;8275;48.206;16.340;2023-07-24T14:32:20;8.93;;;8.10;;
16330;SDS011;8275;48.206;16.340;2023-07-24T14:34:50;10.50;;;9.52;;
16330;SDS011;8275;48.206;16.340;2023-07-24T14:37:21;10.43;;;9.50;;
16330;SDS011;8275;48.206;16.340;2023-07-24T14:39:50;10.20;;;9.13;;
16330;SDS011;8275;48.206;16.340;2023-07-24T14:42:19;11.77;;;10.63;;
16330;SDS011;8275;48.206;16.340;2023-07-24T14:44:48;9.63;;;8.82;;
16330;SDS011;8275;48.206;16.340;2023-07-24T14:47:18;11.98;;;9.02;;
16330;SDS011;8275;48.206;16.340;2023-07-24T14:49:47;9.73;;;8.82;;
16330;SDS011;8275;48.206;16.340;2023-07-24T14:52:16;12.52;;;9.75;;
16330;SDS011;8275;48.206;16.340;2023-07-24T14:54:47;11.68;;;10.38;;
16330;SDS011;8275;48.206;16.340;2023-07-24T14:57:16;10.90;;;8.98;;